sensor_id;sensor_type;location;lat;lon;timestamp;P1;durP1;ratioP1;P2;durP2;ratioP2
9248;SDS011;4660;41.768;26.198;2023-06-14T00:01:44;6.90;;;4.20;;
9248;SDS011;4660;41.768;26.198;2023-06-14T00:04:10;4.95;;;4.32;;
9248;SDS011;4660;41.768;26.198;2023-06-14T00:06:37;6.45;;;3.92;;
9248;SDS011;4660;41.768;26.198;2023-06-14T00:09:03;5.22;;;4.43;;
9248;SDS011;4660;41.768;26.198;2023-06-14T00:11:30;10.40;;;5.00;;
9248;SDS011;4660;41.768;26.198;2023-06-14T00:13:56;6.90;;;4.82;;
9248;SDS011;4660;41.768;26.198;2023-06-14T00:16:22;8.68;;;5.07;;
9248;SDS011;4660;41.768;26.198;2023-06-14T00:18:48;7.65;;;4.50;;
9248;SDS011;4660;41.768;26.198;2023-06-14T00:21:14;5.65;;;4.20;;
9248;SDS011;4660;41.768;26.198;2023-06-14T00:23:40;7.15;;;5.32;;
9248;SDS011;4660;41.768;26.198;2023-06-14T00:26:05;5.75;;;4.65;;
9248;SDS011;4660;41.768;26.198;2023-06-14T00:28:31;6.25;;;4.60;;
9248;SDS011;4660;41.768;26.198;2023-06-14T00:30:56;4.65;;;4.18;;
9248;SDS011;4660;41.768;26.198;2023-06-14T00:33:21;6.22;;;4.70;;
9248;SDS011;4660;41.768;26.198;2023-06-14T00:35:47;4.70;;;4.25;;
9248;SDS011;4660;41.768;26.198;2023-06-14T00:38:13;5.43;;;3.92;;
9248;SDS011;4660;41.768;26.198;2023-06-14T00:40:38;5.10;;;4.32;;
9248;SDS011;4660;41.768;26.198;2023-06-14T00:43:04;4.97;;;4.43;;
9248;SDS011;4660;41.768;26.198;2023-06-14T00:45:29;4.70;;;4.00;;
9248;SDS011;4660;41.768;26.198;2023-06-14T00:47:56;4.55;;;4.15;;
9248;SDS011;4660;41.768;26.198;2023-06-14T00:50:22;4.97;;;4.03;;
9248;SDS011;4660;41.768;26.198;2023-06-14T00:52:49;6.05;;;4.25;;
9248;SDS011;4660;41.768;26.198;2023-06-14T00:55:15;5.30;;;4.68;;
9248;SDS011;4660;41.768;26.198;2023-06-14T00:57:41;5.13;;;4.13;;
9248;SDS011;4660;41.768;26.198;2023-06-14T01:00:07;7.45;;;4.65;;
9248;SDS011;4660;41.768;26.198;2023-06-14T01:02:39;5.07;;;4.57;;
9248;SDS011;4660;41.768;26.198;2023-06-14T01:05:05;5.35;;;4.85;;
9248;SDS011;4660;41.768;26.198;2023-06-14T01:07:41;6.30;;;4.10;;
9248;SDS011;4660;41.768;26.198;2023-06-14T01:10:27;4.63;;;4.22;;
9248;SDS011;4660;41.768;26.198;2023-06-14T01:13:02;6.35;;;4.25;;
9248;SDS011;4660;41.768;26.198;2023-06-14T01:15:31;6.45;;;4.53;;
9248;SDS011;4660;41.768;26.198;2023-06-14T01:17:57;8.25;;;4.90;;
9248;SDS011;4660;41.768;26.198;2023-06-14T01:20:28;5.40;;;4.88;;
9248;SDS011;4660;41.768;26.198;2023-06-14T01:22:55;8.13;;;4.53;;
9248;SDS011;4660;41.768;26.198;2023-06-14T01:25:22;6.68;;;4.82;;
9248;SDS011;4660;41.768;26.198;2023-06-14T01:27:49;8.77;;;5.03;;
9248;SDS011;4660;41.768;26.198;2023-06-14T01:30:16;6.43;;;4.57;;
9248;SDS011;4660;41.768;26.198;2023-06-14T01:32:43;6.60;;;4.72;;
9248;SDS011;4660;41.768;26.198;2023-06-14T01:35:09;4.57;;;4.03;;
9248;SDS011;4660;41.768;26.198;2023-06-14T01:37:35;6.63;;;4.88;;
9248;SDS011;4660;41.768;26.198;2023-06-14T01:40:02;5.72;;;4.25;;
9248;SDS011;4660;41.768;26.198;2023-06-14T01:42:32;7.32;;;4.13;;
9248;SDS011;4660;41.768;26.198;2023-06-14T01:45:01;5.10;;;4.57;;
9248;SDS011;4660;41.768;26.198;2023-06-14T01:47:27;8.73;;;4.65;;
9248;SDS011;4660;41.768;26.198;2023-06-14T01:49:53;5.95;;;4.20;;
9248;SDS011;4660;41.768;26.198;2023-06-14T01:52:18;6.47;;;4.28;;
9248;SDS011;4660;41.768;26.198;2023-06-14T01:54:44;8.00;;;4.70;;
9248;SDS011;4660;41.768;26.198;2023-06-14T01:57:11;7.95;;;4.32;;
9248;SDS011;4660;41.768;26.198;2023-06-14T01:59:37;6.20;;;4.63;;
9248;SDS011;4660;41.768;26.198;2023-06-14T02:02:03;4.53;;;4.03;;
9248;SDS011;4660;41.768;26.198;2023-06-14T02:04:28;4.97;;;4.45;;
9248;SDS011;4660;41.768;26.198;2023-06-14T02:06:54;5.35;;;4.70;;
9248;SDS011;4660;41.768;26.198;2023-06-14T02:09:19;7.10;;;5.38;;
9248;SDS011;4660;41.768;26.198;2023-06-14T02:11:45;4.80;;;4.40;;
9248;SDS011;4660;41.768;26.198;2023-06-14T02:14:10;5.15;;;4.35;;
9248;SDS011;4660;41.768;26.198;2023-06-14T02:16:37;6.25;;;4.38;;
9248;SDS011;4660;41.768;26.198;2023-06-14T02:19:04;7.00;;;4.60;;
9248;SDS011;4660;41.768;26.198;2023-06-14T02:21:30;5.22;;;4.70;;
9248;SDS011;4660;41.768;26.198;2023-06-14T02:23:56;5.72;;;5.07;;
9248;SDS011;4660;41.768;26.198;2023-06-14T02:26:21;7.22;;;5.47;;
9248;SDS011;4660;41.768;26.198;2023-06-14T02:28:47;7.40;;;5.95;;
9248;SDS011;4660;41.768;26.198;2023-06-14T02:31:13;13.20;;;6.00;;
9248;SDS011;4660;41.768;26.198;2023-06-14T02:33:39;7.97;;;6.00;;
9248;SDS011;4660;41.768;26.198;2023-06-14T02:36:05;6.47;;;5.78;;
9248;SDS011;4660;41.768;26.198;2023-06-14T02:38:31;6.55;;;5.90;;
9248;SDS011;4660;41.768;26.198;2023-06-14T02:40:57;6.78;;;5.97;;
9248;SDS011;4660;41.768;26.198;2023-06-14T02:43:24;10.07;;;6.07;;
9248;SDS011;4660;41.768;26.198;2023-06-14T02:45:50;7.65;;;5.97;;
9248;SDS011;4660;41.768;26.198;2023-06-14T02:48:15;8.85;;;5.28;;
9248;SDS011;4660;41.768;26.198;2023-06-14T02:50:41;6.93;;;5.10;;
9248;SDS011;4660;41.768;26.198;2023-06-14T02:53:07;7.70;;;5.50;;
9248;SDS011;4660;41.768;26.198;2023-06-14T02:55:33;6.22;;;5.63;;
9248;SDS011;4660;41.768;26.198;2023-06-14T02:57:58;7.20;;;5.70;;
9248;SDS011;4660;41.768;26.198;2023-06-14T03:00:24;12.20;;;5.93;;
9248;SDS011;4660;41.768;26.198;2023-06-14T03:02:49;6.55;;;4.80;;
9248;SDS011;4660;41.768;26.198;2023-06-14T03:05:16;8.02;;;5.15;;
9248;SDS011;4660;41.768;26.198;2023-06-14T03:07:45;8.00;;;5.63;;
9248;SDS011;4660;41.768;26.198;2023-06-14T03:10:12;10.68;;;5.68;;
9248;SDS011;4660;41.768;26.198;2023-06-14T03:12:38;11.68;;;5.88;;
9248;SDS011;4660;41.768;26.198;2023-06-14T03:15:04;5.47;;;4.97;;
9248;SDS011;4660;41.768;26.198;2023-06-14T03:17:30;8.80;;;6.00;;
9248;SDS011;4660;41.768;26.198;2023-06-14T03:19:59;8.85;;;6.03;;
9248;SDS011;4660;41.768;26.198;2023-06-14T03:22:25;6.50;;;5.80;;
9248;SDS011;4660;41.768;26.198;2023-06-14T03:24:51;6.32;;;5.72;;
9248;SDS011;4660;41.768;26.198;2023-06-14T03:27:17;5.78;;;5.22;;
9248;SDS011;4660;41.768;26.198;2023-06-14T03:29:43;9.00;;;5.68;;
9248;SDS011;4660;41.768;26.198;2023-06-14T03:32:09;7.63;;;5.15;;
9248;SDS011;4660;41.768;26.198;2023-06-14T03:34:35;7.28;;;4.78;;
9248;SDS011;4660;41.768;26.198;2023-06-14T03:37:00;8.68;;;5.68;;
9248;SDS011;4660;41.768;26.198;2023-06-14T03:39:26;5.15;;;4.55;;
9248;SDS011;4660;41.768;26.198;2023-06-14T03:41:51;5.82;;;5.20;;
9248;SDS011;4660;41.768;26.198;2023-06-14T03:44:17;9.27;;;5.78;;
9248;SDS011;4660;41.768;26.198;2023-06-14T03:46:44;5.50;;;4.70;;
9248;SDS011;4660;41.768;26.198;2023-06-14T03:49:10;11.23;;;5.53;;
9248;SDS011;4660;41.768;26.198;2023-06-14T03:51:36;7.38;;;5.22;;
9248;SDS011;4660;41.768;26.198;2023-06-14T03:54:02;9.25;;;5.72;;
9248;SDS011;4660;41.768;26.198;2023-06-14T03:56:27;5.00;;;4.50;;
9248;SDS011;4660;41.768;26.198;2023-06-14T03:58:53;5.13;;;4.65;;
9248;SDS011;4660;41.768;26.198;2023-06-14T04:01:18;7.07;;;5.47;;
9248;SDS011;4660;41.768;26.198;2023-06-14T04:03:44;5.90;;;5.00;;
9248;SDS011;4660;41.768;26.198;2023-06-14T04:06:09;4.97;;;4.57;;
9248;SDS011;4660;41.768;26.198;2023-06-14T04:08:35;4.93;;;4.43;;
9248;SDS011;4660;41.768;26.198;2023-06-14T04:11:01;5.70;;;5.20;;
9248;SDS011;4660;41.768;26.198;2023-06-14T04:13:26;9.98;;;5.05;;
9248;SDS011;4660;41.768;26.198;2023-06-14T04:15:52;5.18;;;4.68;;
9248;SDS011;4660;41.768;26.198;2023-06-14T04:18:18;5.55;;;5.00;;
9248;SDS011;4660;41.768;26.198;2023-06-14T04:20:44;6.03;;;5.22;;
9248;SDS011;4660;41.768;26.198;2023-06-14T04:23:11;9.20;;;4.72;;
9248;SDS011;4660;41.768;26.198;2023-06-14T04:25:38;7.03;;;4.57;;
9248;SDS011;4660;41.768;26.198;2023-06-14T04:28:03;5.97;;;4.45;;
9248;SDS011;4660;41.768;26.198;2023-06-14T04:30:29;4.72;;;4.22;;
9248;SDS011;4660;41.768;26.198;2023-06-14T04:32:57;7.18;;;4.72;;
9248;SDS011;4660;41.768;26.198;2023-06-14T04:35:22;5.60;;;4.88;;
9248;SDS011;4660;41.768;26.198;2023-06-14T04:37:52;6.15;;;4.28;;
9248;SDS011;4660;41.768;26.198;2023-06-14T04:40:18;7.40;;;4.38;;
9248;SDS011;4660;41.768;26.198;2023-06-14T04:42:44;6.90;;;4.57;;
9248;SDS011;4660;41.768;26.198;2023-06-14T04:45:10;8.15;;;4.43;;
9248;SDS011;4660;41.768;26.198;2023-06-14T04:47:36;4.65;;;4.25;;
9248;SDS011;4660;41.768;26.198;2023-06-14T04:50:02;5.78;;;5.22;;
9248;SDS011;4660;41.768;26.198;2023-06-14T04:52:28;10.25;;;5.38;;
9248;SDS011;4660;41.768;26.198;2023-06-14T04:54:55;7.25;;;5.53;;
9248;SDS011;4660;41.768;26.198;2023-06-14T04:57:21;7.07;;;5.22;;
9248;SDS011;4660;41.768;26.198;2023-06-14T04:59:47;8.80;;;5.40;;
9248;SDS011;4660;41.768;26.198;2023-06-14T05:02:14;5.22;;;4.72;;
9248;SDS011;4660;41.768;26.198;2023-06-14T05:04:39;5.72;;;4.95;;
9248;SDS011;4660;41.768;26.198;2023-06-14T05:07:08;6.57;;;5.00;;
9248;SDS011;4660;41.768;26.198;2023-06-14T05:09:34;8.13;;;5.15;;
9248;SDS011;4660;41.768;26.198;2023-06-14T05:12:00;6.10;;;5.53;;
9248;SDS011;4660;41.768;26.198;2023-06-14T05:14:27;8.77;;;6.00;;
9248;SDS011;4660;41.768;26.198;2023-06-14T05:16:52;7.65;;;6.28;;
9248;SDS011;4660;41.768;26.198;2023-06-14T05:19:18;6.90;;;6.20;;
9248;SDS011;4660;41.768;26.198;2023-06-14T05:21:45;9.77;;;5.38;;
9248;SDS011;4660;41.768;26.198;2023-06-14T05:24:12;6.97;;;6.28;;
9248;SDS011;4660;41.768;26.198;2023-06-14T05:26:38;7.28;;;5.68;;
9248;SDS011;4660;41.768;26.198;2023-06-14T05:29:04;6.65;;;6.05;;
9248;SDS011;4660;41.768;26.198;2023-06-14T05:31:29;7.13;;;5.90;;
9248;SDS011;4660;41.768;26.198;2023-06-14T05:33:56;6.70;;;6.00;;
9248;SDS011;4660;41.768;26.198;2023-06-14T05:36:21;5.97;;;5.28;;
9248;SDS011;4660;41.768;26.198;2023-06-14T05:38:47;7.50;;;5.35;;
9248;SDS011;4660;41.768;26.198;2023-06-14T05:41:13;6.00;;;5.40;;
9248;SDS011;4660;41.768;26.198;2023-06-14T05:43:38;7.97;;;5.47;;
9248;SDS011;4660;41.768;26.198;2023-06-14T05:46:04;6.43;;;5.00;;
9248;SDS011;4660;41.768;26.198;2023-06-14T05:48:30;5.35;;;4.80;;
9248;SDS011;4660;41.768;26.198;2023-06-14T05:50:56;7.22;;;5.03;;
9248;SDS011;4660;41.768;26.198;2023-06-14T05:53:22;8.27;;;5.57;;
9248;SDS011;4660;41.768;26.198;2023-06-14T05:55:48;9.82;;;6.25;;
9248;SDS011;4660;41.768;26.198;2023-06-14T05:58:15;9.38;;;4.85;;
9248;SDS011;4660;41.768;26.198;2023-06-14T06:00:40;8.63;;;5.43;;
9248;SDS011;4660;41.768;26.198;2023-06-14T06:03:06;4.15;;;3.85;;
9248;SDS011;4660;41.768;26.198;2023-06-14T06:05:36;7.18;;;4.68;;
9248;SDS011;4660;41.768;26.198;2023-06-14T06:08:02;6.65;;;4.65;;
9248;SDS011;4660;41.768;26.198;2023-06-14T06:10:27;3.95;;;3.65;;
9248;SDS011;4660;41.768;26.198;2023-06-14T06:12:53;9.07;;;3.92;;
9248;SDS011;4660;41.768;26.198;2023-06-14T06:15:19;3.50;;;3.17;;
9248;SDS011;4660;41.768;26.198;2023-06-14T06:17:45;4.57;;;3.22;;
9248;SDS011;4660;41.768;26.198;2023-06-14T06:20:11;3.45;;;3.13;;
9248;SDS011;4660;41.768;26.198;2023-06-14T06:22:37;5.15;;;2.95;;
9248;SDS011;4660;41.768;26.198;2023-06-14T06:25:03;3.25;;;2.20;;
9248;SDS011;4660;41.768;26.198;2023-06-14T06:27:29;5.78;;;2.33;;
9248;SDS011;4660;41.768;26.198;2023-06-14T06:29:55;2.83;;;2.63;;
9248;SDS011;4660;41.768;26.198;2023-06-14T06:32:21;4.47;;;2.53;;
9248;SDS011;4660;41.768;26.198;2023-06-14T06:34:46;2.20;;;2.00;;
9248;SDS011;4660;41.768;26.198;2023-06-14T06:37:12;2.20;;;2.05;;
9248;SDS011;4660;41.768;26.198;2023-06-14T06:39:38;5.57;;;2.33;;
9248;SDS011;4660;41.768;26.198;2023-06-14T06:42:04;2.55;;;2.35;;
9248;SDS011;4660;41.768;26.198;2023-06-14T06:44:30;2.75;;;2.50;;
9248;SDS011;4660;41.768;26.198;2023-06-14T06:46:57;5.90;;;2.70;;
9248;SDS011;4660;41.768;26.198;2023-06-14T06:49:23;2.67;;;2.47;;
9248;SDS011;4660;41.768;26.198;2023-06-14T06:52:01;3.35;;;2.10;;
9248;SDS011;4660;41.768;26.198;2023-06-14T06:54:28;2.47;;;2.28;;
9248;SDS011;4660;41.768;26.198;2023-06-14T06:56:54;3.30;;;2.60;;
9248;SDS011;4660;41.768;26.198;2023-06-14T06:59:20;5.18;;;2.40;;
9248;SDS011;4660;41.768;26.198;2023-06-14T07:01:46;3.15;;;2.60;;
9248;SDS011;4660;41.768;26.198;2023-06-14T07:04:12;7.78;;;2.40;;
9248;SDS011;4660;41.768;26.198;2023-06-14T07:06:38;4.93;;;2.20;;
9248;SDS011;4660;41.768;26.198;2023-06-14T07:09:04;4.07;;;2.33;;
9248;SDS011;4660;41.768;26.198;2023-06-14T07:11:33;3.67;;;2.28;;
9248;SDS011;4660;41.768;26.198;2023-06-14T07:13:59;2.65;;;2.13;;
9248;SDS011;4660;41.768;26.198;2023-06-14T07:16:25;1.98;;;1.80;;
9248;SDS011;4660;41.768;26.198;2023-06-14T07:18:51;2.03;;;1.92;;
9248;SDS011;4660;41.768;26.198;2023-06-14T07:21:17;3.67;;;2.20;;
9248;SDS011;4660;41.768;26.198;2023-06-14T07:23:43;2.05;;;1.95;;
9248;SDS011;4660;41.768;26.198;2023-06-14T07:26:08;2.30;;;2.10;;
9248;SDS011;4660;41.768;26.198;2023-06-14T07:28:34;2.30;;;2.10;;
9248;SDS011;4660;41.768;26.198;2023-06-14T07:31:01;1.88;;;1.77;;
9248;SDS011;4660;41.768;26.198;2023-06-14T07:33:26;3.47;;;2.60;;
9248;SDS011;4660;41.768;26.198;2023-06-14T07:35:52;11.13;;;5.03;;
9248;SDS011;4660;41.768;26.198;2023-06-14T07:38:18;2.25;;;1.85;;
9248;SDS011;4660;41.768;26.198;2023-06-14T07:40:43;2.53;;;2.33;;
9248;SDS011;4660;41.768;26.198;2023-06-14T07:43:09;4.85;;;1.85;;
9248;SDS011;4660;41.768;26.198;2023-06-14T07:45:35;1.95;;;1.85;;
9248;SDS011;4660;41.768;26.198;2023-06-14T07:48:01;3.50;;;2.20;;
9248;SDS011;4660;41.768;26.198;2023-06-14T07:50:27;3.55;;;2.20;;
9248;SDS011;4660;41.768;26.198;2023-06-14T07:52:53;3.80;;;2.00;;
9248;SDS011;4660;41.768;26.198;2023-06-14T07:55:21;2.17;;;2.00;;
9248;SDS011;4660;41.768;26.198;2023-06-14T07:57:46;5.68;;;2.10;;
9248;SDS011;4660;41.768;26.198;2023-06-14T08:03:00;6.00;;;1.92;;
9248;SDS011;4660;41.768;26.198;2023-06-14T08:05:27;1.83;;;1.70;;
9248;SDS011;4660;41.768;26.198;2023-06-14T08:07:54;1.85;;;1.73;;
9248;SDS011;4660;41.768;26.198;2023-06-14T08:10:20;4.93;;;1.85;;
9248;SDS011;4660;41.768;26.198;2023-06-14T08:12:47;3.70;;;1.70;;
9248;SDS011;4660;41.768;26.198;2023-06-14T08:15:13;2.55;;;1.70;;
9248;SDS011;4660;41.768;26.198;2023-06-14T08:17:39;1.88;;;1.77;;
9248;SDS011;4660;41.768;26.198;2023-06-14T08:20:06;3.83;;;1.58;;
9248;SDS011;4660;41.768;26.198;2023-06-14T08:22:32;3.42;;;1.80;;
9248;SDS011;4660;41.768;26.198;2023-06-14T08:27:37;2.13;;;1.80;;
9248;SDS011;4660;41.768;26.198;2023-06-14T08:30:03;1.90;;;1.80;;
9248;SDS011;4660;41.768;26.198;2023-06-14T08:32:32;4.32;;;2.15;;
9248;SDS011;4660;41.768;26.198;2023-06-14T08:35:08;1.75;;;1.52;;
9248;SDS011;4660;41.768;26.198;2023-06-14T08:40:42;1.27;;;1.13;;
9248;SDS011;4660;41.768;26.198;2023-06-14T08:43:15;2.22;;;2.03;;
9248;SDS011;4660;41.768;26.198;2023-06-14T08:45:42;1.70;;;1.60;;
9248;SDS011;4660;41.768;26.198;2023-06-14T08:48:08;4.55;;;1.88;;
9248;SDS011;4660;41.768;26.198;2023-06-14T08:50:34;2.15;;;2.00;;
9248;SDS011;4660;41.768;26.198;2023-06-14T08:53:07;4.90;;;1.90;;
9248;SDS011;4660;41.768;26.198;2023-06-14T08:55:37;2.33;;;1.70;;
9248;SDS011;4660;41.768;26.198;2023-06-14T08:58:04;2.92;;;2.05;;
9248;SDS011;4660;41.768;26.198;2023-06-14T09:00:30;1.80;;;1.70;;
9248;SDS011;4660;41.768;26.198;2023-06-14T09:02:57;5.53;;;1.60;;
9248;SDS011;4660;41.768;26.198;2023-06-14T09:05:26;1.55;;;1.45;;
9248;SDS011;4660;41.768;26.198;2023-06-14T09:07:53;2.35;;;1.70;;
9248;SDS011;4660;41.768;26.198;2023-06-14T09:10:25;1.90;;;1.80;;
9248;SDS011;4660;41.768;26.198;2023-06-14T09:12:58;2.88;;;2.10;;
9248;SDS011;4660;41.768;26.198;2023-06-14T09:15:25;2.97;;;1.65;;
9248;SDS011;4660;41.768;26.198;2023-06-14T09:17:51;2.75;;;1.67;;
9248;SDS011;4660;41.768;26.198;2023-06-14T09:20:16;2.55;;;2.28;;
9248;SDS011;4660;41.768;26.198;2023-06-14T09:22:45;3.03;;;1.95;;
9248;SDS011;4660;41.768;26.198;2023-06-14T09:25:12;2.03;;;1.80;;
9248;SDS011;4660;41.768;26.198;2023-06-14T09:27:40;2.00;;;1.75;;
9248;SDS011;4660;41.768;26.198;2023-06-14T09:30:10;2.08;;;1.70;;
9248;SDS011;4660;41.768;26.198;2023-06-14T09:32:36;3.05;;;1.77;;
9248;SDS011;4660;41.768;26.198;2023-06-14T09:35:08;1.80;;;1.70;;
9248;SDS011;4660;41.768;26.198;2023-06-14T09:37:35;3.60;;;1.63;;
9248;SDS011;4660;41.768;26.198;2023-06-14T09:40:04;2.13;;;1.55;;
9248;SDS011;4660;41.768;26.198;2023-06-14T09:42:30;1.95;;;1.80;;
9248;SDS011;4660;41.768;26.198;2023-06-14T09:44:59;1.77;;;1.50;;
9248;SDS011;4660;41.768;26.198;2023-06-14T09:50:00;2.30;;;1.60;;
9248;SDS011;4660;41.768;26.198;2023-06-14T09:52:26;1.95;;;1.85;;
9248;SDS011;4660;41.768;26.198;2023-06-14T09:54:53;2.00;;;1.50;;
9248;SDS011;4660;41.768;26.198;2023-06-14T09:57:21;2.03;;;1.83;;
9248;SDS011;4660;41.768;26.198;2023-06-14T09:59:51;2.03;;;1.60;;
9248;SDS011;4660;41.768;26.198;2023-06-14T10:05:06;6.03;;;1.67;;
9248;SDS011;4660;41.768;26.198;2023-06-14T10:10:18;1.52;;;1.40;;
9248;SDS011;4660;41.768;26.198;2023-06-14T10:12:44;1.73;;;1.50;;
9248;SDS011;4660;41.768;26.198;2023-06-14T10:15:11;1.65;;;1.55;;
9248;SDS011;4660;41.768;26.198;2023-06-14T10:17:47;1.88;;;1.50;;
9248;SDS011;4660;41.768;26.198;2023-06-14T10:26:01;1.90;;;1.73;;
9248;SDS011;4660;41.768;26.198;2023-06-14T10:28:27;4.10;;;1.85;;
9248;SDS011;4660;41.768;26.198;2023-06-14T10:31:08;1.85;;;1.55;;
9248;SDS011;4660;41.768;26.198;2023-06-14T10:41:41;1.83;;;1.52;;
9248;SDS011;4660;41.768;26.198;2023-06-14T10:49:16;1.70;;;1.60;;
9248;SDS011;4660;41.768;26.198;2023-06-14T10:51:49;3.10;;;2.22;;
9248;SDS011;4660;41.768;26.198;2023-06-14T10:54:16;1.88;;;1.70;;
9248;SDS011;4660;41.768;26.198;2023-06-14T10:56:49;4.20;;;1.48;;
9248;SDS011;4660;41.768;26.198;2023-06-14T11:04:49;1.83;;;1.73;;
9248;SDS011;4660;41.768;26.198;2023-06-14T11:13:26;2.28;;;2.03;;
9248;SDS011;4660;41.768;26.198;2023-06-14T11:15:55;1.58;;;1.48;;
9248;SDS011;4660;41.768;26.198;2023-06-14T11:18:26;2.08;;;1.70;;
9248;SDS011;4660;41.768;26.198;2023-06-14T11:20:57;1.90;;;1.75;;
9248;SDS011;4660;41.768;26.198;2023-06-14T11:23:23;1.92;;;1.73;;
9248;SDS011;4660;41.768;26.198;2023-06-14T11:25:50;2.50;;;1.67;;
9248;SDS011;4660;41.768;26.198;2023-06-14T11:28:16;1.65;;;1.55;;
9248;SDS011;4660;41.768;26.198;2023-06-14T11:30:47;4.50;;;1.80;;
9248;SDS011;4660;41.768;26.198;2023-06-14T11:35:52;1.70;;;1.60;;
9248;SDS011;4660;41.768;26.198;2023-06-14T11:38:18;2.38;;;1.60;;
9248;SDS011;4660;41.768;26.198;2023-06-14T11:40:47;1.70;;;1.60;;
9248;SDS011;4660;41.768;26.198;2023-06-14T11:43:13;1.38;;;1.30;;
9248;SDS011;4660;41.768;26.198;2023-06-14T11:45:40;2.85;;;1.45;;
9248;SDS011;4660;41.768;26.198;2023-06-14T11:48:09;2.15;;;1.80;;
9248;SDS011;4660;41.768;26.198;2023-06-14T11:53:10;1.70;;;1.60;;
9248;SDS011;4660;41.768;26.198;2023-06-14T11:55:49;3.25;;;1.70;;
9248;SDS011;4660;41.768;26.198;2023-06-14T11:58:15;2.30;;;2.10;;
9248;SDS011;4660;41.768;26.198;2023-06-14T12:00:43;2.70;;;1.77;;
9248;SDS011;4660;41.768;26.198;2023-06-14T12:03:09;3.38;;;1.52;;
9248;SDS011;4660;41.768;26.198;2023-06-14T12:05:38;2.17;;;1.65;;
9248;SDS011;4660;41.768;26.198;2023-06-14T12:08:06;3.17;;;1.85;;
9248;SDS011;4660;41.768;26.198;2023-06-14T12:13:02;1.80;;;1.60;;
9248;SDS011;4660;41.768;26.198;2023-06-14T12:15:28;3.25;;;1.48;;
9248;SDS011;4660;41.768;26.198;2023-06-14T12:17:57;2.65;;;1.83;;
9248;SDS011;4660;41.768;26.198;2023-06-14T12:20:30;1.83;;;1.60;;
9248;SDS011;4660;41.768;26.198;2023-06-14T12:23:00;1.63;;;1.40;;
9248;SDS011;4660;41.768;26.198;2023-06-14T12:25:34;2.33;;;1.88;;
9248;SDS011;4660;41.768;26.198;2023-06-14T12:28:05;1.70;;;1.60;;
9248;SDS011;4660;41.768;26.198;2023-06-14T12:30:33;2.17;;;1.90;;
9248;SDS011;4660;41.768;26.198;2023-06-14T12:33:08;2.00;;;1.90;;
9248;SDS011;4660;41.768;26.198;2023-06-14T12:35:34;2.55;;;1.67;;
9248;SDS011;4660;41.768;26.198;2023-06-14T12:38:00;2.67;;;1.83;;
9248;SDS011;4660;41.768;26.198;2023-06-14T12:40:31;2.38;;;1.60;;
9248;SDS011;4660;41.768;26.198;2023-06-14T12:43:23;3.15;;;1.70;;
9248;SDS011;4660;41.768;26.198;2023-06-14T12:45:53;1.77;;;1.67;;
9248;SDS011;4660;41.768;26.198;2023-06-14T12:48:19;4.13;;;1.77;;
9248;SDS011;4660;41.768;26.198;2023-06-14T12:50:48;8.05;;;2.20;;
9248;SDS011;4660;41.768;26.198;2023-06-14T12:53:14;2.65;;;1.73;;
9248;SDS011;4660;41.768;26.198;2023-06-14T12:55:44;1.90;;;1.80;;
9248;SDS011;4660;41.768;26.198;2023-06-14T12:58:10;1.90;;;1.70;;
9248;SDS011;4660;41.768;26.198;2023-06-14T13:00:40;4.28;;;1.73;;
9248;SDS011;4660;41.768;26.198;2023-06-14T13:03:21;4.43;;;1.77;;
9248;SDS011;4660;41.768;26.198;2023-06-14T13:05:46;3.67;;;1.80;;
9248;SDS011;4660;41.768;26.198;2023-06-14T13:08:12;3.15;;;1.60;;
9248;SDS011;4660;41.768;26.198;2023-06-14T13:10:38;1.80;;;1.70;;
9248;SDS011;4660;41.768;26.198;2023-06-14T13:13:03;1.73;;;1.63;;
9248;SDS011;4660;41.768;26.198;2023-06-14T13:15:32;1.75;;;1.65;;
9248;SDS011;4660;41.768;26.198;2023-06-14T13:17:58;2.17;;;1.85;;
9248;SDS011;4660;41.768;26.198;2023-06-14T13:20:23;2.00;;;1.90;;
9248;SDS011;4660;41.768;26.198;2023-06-14T13:22:54;1.90;;;1.80;;
9248;SDS011;4660;41.768;26.198;2023-06-14T13:25:23;1.70;;;1.60;;
9248;SDS011;4660;41.768;26.198;2023-06-14T13:27:50;1.63;;;1.52;;
9248;SDS011;4660;41.768;26.198;2023-06-14T13:30:22;1.40;;;1.30;;
9248;SDS011;4660;41.768;26.198;2023-06-14T13:32:53;1.80;;;1.70;;
9248;SDS011;4660;41.768;26.198;2023-06-14T13:35:21;1.60;;;1.50;;
9248;SDS011;4660;41.768;26.198;2023-06-14T13:37:47;1.45;;;1.35;;
9248;SDS011;4660;41.768;26.198;2023-06-14T13:40:13;1.75;;;1.65;;
9248;SDS011;4660;41.768;26.198;2023-06-14T13:42:39;1.58;;;1.48;;
9248;SDS011;4660;41.768;26.198;2023-06-14T13:45:05;3.88;;;1.33;;
9248;SDS011;4660;41.768;26.198;2023-06-14T13:47:31;2.25;;;1.70;;
9248;SDS011;4660;41.768;26.198;2023-06-14T13:49:57;3.15;;;1.70;;
9248;SDS011;4660;41.768;26.198;2023-06-14T13:52:23;2.03;;;1.80;;
9248;SDS011;4660;41.768;26.198;2023-06-14T13:54:49;1.83;;;1.60;;
9248;SDS011;4660;41.768;26.198;2023-06-14T13:57:15;1.70;;;1.60;;
9248;SDS011;4660;41.768;26.198;2023-06-14T13:59:41;1.88;;;1.65;;
9248;SDS011;4660;41.768;26.198;2023-06-14T14:02:06;2.20;;;2.00;;
9248;SDS011;4660;41.768;26.198;2023-06-14T14:04:33;1.77;;;1.65;;
9248;SDS011;4660;41.768;26.198;2023-06-14T14:07:00;2.60;;;1.92;;
9248;SDS011;4660;41.768;26.198;2023-06-14T14:09:26;3.50;;;1.63;;
9248;SDS011;4660;41.768;26.198;2023-06-14T14:11:51;1.70;;;1.60;;
9248;SDS011;4660;41.768;26.198;2023-06-14T14:14:17;1.80;;;1.70;;
9248;SDS011;4660;41.768;26.198;2023-06-14T14:16:43;1.77;;;1.67;;
9248;SDS011;4660;41.768;26.198;2023-06-14T14:19:08;1.58;;;1.48;;
9248;SDS011;4660;41.768;26.198;2023-06-14T14:21:34;1.75;;;1.65;;
9248;SDS011;4660;41.768;26.198;2023-06-14T14:24:01;2.20;;;2.00;;
9248;SDS011;4660;41.768;26.198;2023-06-14T14:26:26;3.67;;;1.80;;
9248;SDS011;4660;41.768;26.198;2023-06-14T14:28:57;3.97;;;1.50;;
9248;SDS011;4660;41.768;26.198;2023-06-14T14:31:27;3.33;;;1.60;;
9248;SDS011;4660;41.768;26.198;2023-06-14T14:33:53;2.40;;;1.60;;
9248;SDS011;4660;41.768;26.198;2023-06-14T14:36:19;2.13;;;1.70;;
9248;SDS011;4660;41.768;26.198;2023-06-14T14:38:44;3.30;;;1.70;;
9248;SDS011;4660;41.768;26.198;2023-06-14T14:41:10;1.88;;;1.65;;
9248;SDS011;4660;41.768;26.198;2023-06-14T14:43:37;3.08;;;1.63;;
9248;SDS011;4660;41.768;26.198;2023-06-14T14:46:04;2.88;;;1.55;;
9248;SDS011;4660;41.768;26.198;2023-06-14T14:48:45;2.28;;;1.95;;
9248;SDS011;4660;41.768;26.198;2023-06-14T14:51:16;3.38;;;2.60;;
9248;SDS011;4660;41.768;26.198;2023-06-14T14:53:43;1.58;;;1.42;;
9248;SDS011;4660;41.768;26.198;2023-06-14T14:56:09;3.97;;;1.90;;
9248;SDS011;4660;41.768;26.198;2023-06-14T14:58:38;2.20;;;2.00;;
9248;SDS011;4660;41.768;26.198;2023-06-14T15:01:03;3.28;;;1.90;;
9248;SDS011;4660;41.768;26.198;2023-06-14T15:03:30;4.13;;;1.80;;
9248;SDS011;4660;41.768;26.198;2023-06-14T15:05:56;2.15;;;1.67;;
9248;SDS011;4660;41.768;26.198;2023-06-14T15:08:22;2.25;;;2.05;;
9248;SDS011;4660;41.768;26.198;2023-06-14T15:10:48;2.20;;;1.60;;
9248;SDS011;4660;41.768;26.198;2023-06-14T15:13:14;1.88;;;1.70;;
9248;SDS011;4660;41.768;26.198;2023-06-14T15:15:40;2.10;;;1.83;;
9248;SDS011;4660;41.768;26.198;2023-06-14T15:18:06;3.00;;;1.77;;
9248;SDS011;4660;41.768;26.198;2023-06-14T15:20:31;3.72;;;1.77;;
9248;SDS011;4660;41.768;26.198;2023-06-14T15:25:33;1.80;;;1.70;;
9248;SDS011;4660;41.768;26.198;2023-06-14T15:27:59;1.52;;;1.42;;
9248;SDS011;4660;41.768;26.198;2023-06-14T15:30:27;1.92;;;1.83;;
9248;SDS011;4660;41.768;26.198;2023-06-14T15:32:52;2.88;;;1.88;;
9248;SDS011;4660;41.768;26.198;2023-06-14T15:35:18;3.42;;;1.60;;
9248;SDS011;4660;41.768;26.198;2023-06-14T15:37:44;1.67;;;1.58;;
9248;SDS011;4660;41.768;26.198;2023-06-14T15:40:09;2.10;;;1.75;;
9248;SDS011;4660;41.768;26.198;2023-06-14T15:42:35;2.33;;;1.67;;
9248;SDS011;4660;41.768;26.198;2023-06-14T15:45:01;2.28;;;1.70;;
9248;SDS011;4660;41.768;26.198;2023-06-14T15:47:26;3.05;;;1.60;;
9248;SDS011;4660;41.768;26.198;2023-06-14T15:49:52;1.83;;;1.73;;
9248;SDS011;4660;41.768;26.198;2023-06-14T15:52:17;1.73;;;1.63;;
9248;SDS011;4660;41.768;26.198;2023-06-14T15:54:43;3.78;;;1.88;;
9248;SDS011;4660;41.768;26.198;2023-06-14T15:57:08;2.03;;;1.63;;